logo
Search for airport 
image banner adimage banner adimage banner ad
image banner ad

Z041 - Luliang Air Base (CN-0041)

Located in Qujing, China

ICAO - , IATA -

Data provided by Airmate  

General information

Coordinates: N24°59'18" E103°38'31"
Elevation is 6075 feet MSL.
Magnetic variation is -2° East
View others Airports in Yunnan Province

Operational data

Special qualification required
Current time UTC:
Current local time:
Weather at : ZPPP - Kunming/Changshui ( 72 km )
METAR: ZPPP 251500Z VRB01MPS 9999 SCT046 22/16 Q1014 NOSIG
TAF: TAF ZPPP 250910Z 2512/2612 04004MPS 9999 SCT026 BKN033 TX29/2608Z TN18/2523Z
View NOTAMs / SUP AIP / TFR affecting this airport [VIEW]
Communications frequencies: [VIEW]

Runways:

RWY identifierQFULength (ft)Width (ft)SurfaceLDA (ft)
0438°9853148CONC
22218°9853148CONC

Airport contact information

Address: Qujing China

Satellite view of Z041